Forside
METAR-TAF:

METAR-TAF

Lufthavne :

Langlade County Airport

Antigo, Wisconsin, USA

Breddekreds: 45-09-15N, længdekreds: 89-06-39W, højde: 464 m

Aktuelle vejr

Denne rapport blev lavet for 27 minutter siden, kl. 11:55 UTC
Vind 10 kt fra sydøst
Temperatur -3°C
Fugtighed 93%
Tryk 1022 hPa
Sigt: 16.1 km
Brudte skyer i en højde af 1600 ft
Brudte skyer i en højde af 2400 ft
Overskyet i en højde af 2800 ft

METAR: KAIG 241155Z AUTO 13010KT 10SM BKN016 BKN024 OVC028 M03/M04 A3019 RMK AO2 T10321042 11032 21064

Tid: 06:22 (12:22 UTC)


TAF: fraværende

Vejrobservationer og prognoser fra mere end 4000 lufthavne (METAR og TAF).

De gule og røde prikker repræsenterer de meteorologiske stationer.

Flyt musen over at se navnet på stationen.

Så klik over at se vejr observationer og prognoser.

At skifte det kort: Klik på de grønne knapper med et sort kors for at zoome ind; på den grønne knap med en bindestreg for at zoome ud; eller på de grønne pile for tilstødende kort.


METAR-TAF: